Date,TemperatureHighF,TemperatureAvgF,TemperatureLowF,DewpointHighF,DewpointAvgF,DewpointLowF,HumidityHigh,HumidityAvg,HumidityLow,PressureMaxIn,PressureMinIn,WindSpeedMaxMPH,WindSpeedAvgMPH,GustSpeedMaxMPH,PrecipitationSumIn
2013-9-1,88.9,76.7,67.3,55.0,47.1,41.0,51,36,22,29.93,29.87,6,2,9,0.00
2013-9-2,73.2,67.2,62.0,67.0,60.0,48.0,94,80,41,29.98,29.89,7,1,9,0.31
2013-9-3,82.7,70.9,60.5,63.0,55.9,48.0,95,64,35,30.02,29.94,7,1,10,0.01
2013-9-4,86.0,71.0,58.3,56.0,51.3,45.0,82,53,29,30.04,29.94,6,2,9,0.00
2013-9-5,83.7,70.3,56.9,54.0,49.3,44.0,78,50,30,30.01,29.94,9,2,14,0.00
2013-9-6,90.4,73.5,57.2,50.0,44.0,37.0,60,38,18,30.01,29.88,4,1,11,0.00
2013-9-7,95.0,78.8,64.8,50.0,46.9,45.0,52,35,19,29.92,29.83,5,1,9,0.00
2013-9-8,95.6,80.8,68.0,52.0,45.7,41.0,46,31,16,29.88,29.77,9,2,14,0.00
2013-9-9,95.7,81.7,67.8,53.0,46.5,41.0,39,30,20,29.81,29.68,6,1,12,0.00
2013-9-10,89.7,85.1,65.0,56.0,52.6,42.4,67,33,27,29.87,29.71,9,2,14,0.00
2013-9-11,81.5,67.3,56.6,57.0,54.7,52.0,89,66,37,30.00,29.87,9,2,10,0.00
2013-9-12,87.1,70.4,55.9,59.0,54.7,52.0,89,61,32,30.00,29.89,5,1,9,0.00
2013-9-13,87.5,75.3,63.0,59.0,55.6,52.0,70,52,37,29.91,29.74,3,1,7,0.07
2013-9-14,88.7,74.4,63.2,59.0,56.3,54.8,77,55,34,29.80,29.71,7,2,7,0.00
2013-9-15,83.5,68.6,57.5,55.2,51.1,36.0,78,57,19,29.86,29.74,14,4,16,0.00
2013-9-16,84.6,70.5,57.0,53.0,48.1,42.0,63,47,30,29.91,29.79,7,2,11,0.00
2013-9-17,75.4,66.2,57.1,52.0,49.6,46.0,78,57,40,29.91,29.80,12,4,16,0.00
2013-9-18,80.7,67.1,55.1,48.0,43.6,39.0,64,45,25,29.94,29.84,6,1,12,0.00
2013-9-19,87.7,70.8,55.4,44.0,41.4,39.0,59,38,18,29.91,29.79,5,1,9,0.00
2013-9-20,80.9,67.8,58.8,57.0,45.1,33.0,86,47,20,29.88,29.77,10,3,12,0.00
2013-9-21,63.8,56.5,49.7,57.0,53.3,48.0,96,89,69,29.94,29.84,10,2,19,0.91
2013-9-22,69.4,57.2,47.2,53.0,49.1,46.0,97,77,49,30.02,29.91,5,1,8,0.01
2013-9-23,77.2,63.4,50.6,55.0,50.8,47.0,88,66,45,30.04,29.96,8,1,11,0.00
2013-9-24,73.9,63.4,54.0,55.0,51.0,45.0,87,66,37,29.98,29.86,13,3,16,0.00
2013-9-25,67.3,57.8,50.7,50.0,42.3,31.0,90,61,29,29.92,29.82,7,1,10,0.00
2013-9-26,70.1,58.0,44.7,41.0,36.0,30.0,67,46,31,30.00,29.82,13,2,17,0.00
2013-9-27,74.2,60.9,48.8,39.0,35.3,31.0,57,40,24,30.11,30.00,11,2,15,0.00
2013-9-28,79.6,65.1,52.7,43.0,38.8,35.0,62,41,20,30.12,30.01,5,2,11,0.00
2013-9-29,73.9,63.4,52.3,56.0,49.3,39.0,84,61,44,30.11,30.04,10,2,12,0.00
2013-9-30,74.9,63.9,58.4,59.0,56.4,55.0,94,78,53,30.09,29.96,6,2,11,0.00